Time;durP1;ratioP1;P1;durP2;ratioP2;P2;SDS_P1;SDS_P2;PMS_P1;PMS_P2;Temp;Humidity;BMP_temperature;BMP_pressure;BME280_temperature;BME280_humidity;BME280_pressure;Samples;Min_cycle;Max_cycle;Signal;HPM_P1;HPM_P2
2022/05/28 00:00:32;;;;;;;;;;;;;;;9.73;59.27;100326.39;1809071;78;20893;-80
2022/05/28 00:03:01;;;;;;;5.97;1.10;;;;;;;9.70;59.80;100318.70;1797668;78;20086;-81
2022/05/28 00:05:27;;;;;;;2.40;0.90;;;;;;;9.69;59.33;100323.89;1785184;80;21386;-80
2022/05/28 00:07:53;;;;;;;2.20;0.83;;;;;;;9.62;59.42;100321.84;1785707;80;20957;-79
2022/05/28 00:10:21;;;;;;;1.60;0.70;;;;;;;9.55;59.49;100317.22;1759408;80;20930;-79
2022/05/28 00:12:48;;;;;;;6.22;1.10;;;;;;;9.55;59.50;100319.80;1792992;79;20937;-79
2022/05/28 00:15:14;;;;;;;3.40;1.20;;;;;;;9.52;59.58;100314.70;1723566;82;20919;-80
2022/05/28 00:17:41;;;;;;;4.28;1.40;;;;;;;9.51;59.60;100309.55;1711516;82;20911;-79
2022/05/28 00:20:09;;;;;;;4.47;0.75;;;;;;;9.49;59.70;100317.33;1801926;77;26591;-79
2022/05/28 00:22:43;;;;;;;3.20;0.90;;;;;;;9.47;59.77;100313.06;1797261;78;21029;-79
2022/05/28 00:25:13;;;;;;;3.22;0.80;;;;;;;9.47;59.83;100315.20;1787537;78;21765;-79
2022/05/28 00:27:40;;;;;;;8.45;1.00;;;;;;;9.46;59.87;100322.53;1774315;79;20903;-79
2022/05/28 00:30:11;;;;;;;4.75;1.05;;;;;;;9.47;59.89;100307.91;1769946;80;20898;-80
2022/05/28 00:32:37;;;;;;;4.75;0.80;;;;;;;9.46;60.02;100307.48;1796182;79;20858;-80
2022/05/28 00:35:06;;;;;;;4.17;1.07;;;;;;;9.43;60.03;100308.83;1769871;79;20927;-80
2022/05/28 00:37:32;;;;;;;5.78;1.52;;;;;;;9.45;60.12;100304.49;1760155;81;21029;-80
2022/05/28 00:40:01;;;;;;;3.98;0.90;;;;;;;9.43;60.16;100301.94;1754159;80;20982;-80
2022/05/28 00:42:29;;;;;;;4.25;0.98;;;;;;;9.43;60.18;100306.25;1749986;81;21045;-80
2022/05/28 00:44:56;;;;;;;3.30;0.82;;;;;;;9.44;60.52;100307.95;1683416;85;21004;-80
2022/05/28 00:47:22;;;;;;;6.60;1.02;;;;;;;9.44;60.37;100311.82;1788468;79;21041;-80
2022/05/28 00:49:49;;;;;;;2.10;0.72;;;;;;;9.43;60.46;100312.26;1797593;78;22282;-80
2022/05/28 00:52:17;;;;;;;6.45;1.00;;;;;;;9.43;60.58;100307.09;1752981;81;21034;-80
2022/05/28 00:54:47;;;;;;;1.40;0.72;;;;;;;9.45;60.65;100300.63;1684340;82;21104;-80
2022/05/28 00:57:16;;;;;;;4.58;1.15;;;;;;;9.47;60.67;100300.16;1731927;82;21025;-79
2022/05/28 00:59:44;;;;;;;3.25;0.80;;;;;;;9.50;60.70;100297.53;1679282;83;21108;-79
2022/05/28 01:02:34;;;;;;;2.20;0.70;;;;;;;9.54;60.73;100296.60;1791604;79;20985;-80
2022/05/28 01:05:31;;;;;;;3.52;0.95;;;;;;;9.57;60.88;100299.13;1777625;79;21435;-79
2022/05/28 01:08:12;;;;;;;7.35;1.12;;;;;;;9.58;60.83;100298.25;1750207;81;21079;-80
2022/05/28 01:11:16;;;;;;;2.95;0.70;;;;;;;9.61;60.97;100300.78;1778091;79;22168;-80
2022/05/28 01:13:59;;;;;;;2.58;0.93;;;;;;;9.63;60.97;100304.19;1778966;80;20949;-80
2022/05/28 01:16:40;;;;;;;5.90;0.70;;;;;;;9.67;61.10;100304.98;1777994;79;21493;-80
2022/05/28 01:19:39;;;;;;;5.67;1.57;;;;;;;9.68;61.16;100302.38;1766043;79;22003;-79
2022/05/28 01:22:19;;;;;;;2.47;0.78;;;;;;;9.69;61.21;100301.94;1779444;79;21554;-79
2022/05/28 01:25:06;;;;;;;4.92;0.85;;;;;;;9.71;61.10;100311.37;1781058;80;21361;-79
2022/05/28 01:27:43;;;;;;;5.37;1.65;;;;;;;9.69;61.11;100313.12;1780829;80;22359;-79
2022/05/28 01:30:13;;;;;;;3.37;1.00;;;;;;;9.67;61.23;100307.13;1777939;79;21752;-79
2022/05/28 01:32:42;;;;;;;1.80;0.60;;;;;;;9.66;61.21;100304.14;1782269;80;21481;-79
2022/05/28 01:35:15;;;;;;;3.80;0.82;;;;;;;9.65;61.26;100299.00;1776195;80;21342;-78
2022/05/28 01:37:44;;;;;;;2.60;0.85;;;;;;;9.61;61.29;100302.08;1782613;80;20937;-78
2022/05/28 01:40:12;;;;;;;2.08;0.80;;;;;;;9.57;61.35;100300.42;1788959;79;20965;-79
2022/05/28 01:42:43;;;;;;;3.10;0.62;;;;;;;9.54;61.37;100293.58;1803167;78;21505;-79
2022/05/28 01:45:13;;;;;;;2.50;0.72;;;;;;;9.53;61.49;100294.89;1797885;78;21077;-78
2022/05/28 01:47:44;;;;;;;1.62;0.65;;;;;;;9.52;61.68;100292.75;1787769;79;21454;-80
2022/05/28 01:50:13;;;;;;;4.72;0.65;;;;;;;9.51;61.54;100290.20;1772744;79;21501;-79
2022/05/28 01:52:42;;;;;;;2.75;0.60;;;;;;;9.53;61.55;100283.28;1781773;79;21017;-79
2022/05/28 01:55:15;;;;;;;2.65;0.80;;;;;;;9.51;61.55;100290.20;1799286;78;21514;-79
2022/05/28 01:57:41;;;;;;;4.03;0.90;;;;;;;9.51;61.65;100286.33;1759425;81;21057;-78
2022/05/28 02:00:12;;;;;;;4.33;0.82;;;;;;;9.51;61.65;100283.31;1797388;79;21569;-79
2022/05/28 02:02:40;;;;;;;15.43;1.00;;;;;;;9.50;61.78;100279.02;1802138;78;21835;-79
2022/05/28 02:05:07;;;;;;;4.78;0.80;;;;;;;9.47;61.73;100273.06;1751438;81;21020;-79
2022/05/28 02:07:33;;;;;;;;;;;;;;;9.45;61.87;100277.39;1699304;82;21085;-79
2022/05/28 02:10:13;;;;;;;2.42;0.80;;;;;;;9.43;62.09;100273.98;1731677;82;20477;-79
2022/05/28 02:13:15;;;;;;;2.92;0.60;;;;;;;9.43;61.98;100268.83;1719585;80;20985;-79
2022/05/28 02:15:49;;;;;;;2.90;0.88;;;;;;;9.39;61.91;100269.31;1748632;82;21518;-79
2022/05/28 02:18:31;;;;;;;5.05;0.70;;;;;;;9.37;61.95;100268.92;1749706;80;21533;-80
2022/05/28 02:21:08;;;;;;;3.12;0.57;;;;;;;9.33;62.02;100272.03;1732388;82;21609;-79
2022/05/28 02:24:04;;;;;;;2.75;0.60;;;;;;;9.31;61.98;100263.90;1765718;79;21428;-79
2022/05/28 02:26:47;;;;;;;3.58;0.60;;;;;;;9.25;62.00;100270.02;1720070;80;21422;-80
2022/05/28 02:29:17;;;;;;;1.98;0.60;;;;;;;9.15;62.09;100266.72;1752118;80;21389;-79
2022/05/28 02:31:45;;;;;;;;;;;;;;;9.06;62.15;100263.00;1691098;83;20962;-79
2022/05/28 02:34:12;;;;;;;6.17;0.68;;;;;;;9.02;62.62;100272.94;1719190;83;20427;-79
2022/05/28 02:36:39;;;;;;;;;;;;;;;9.00;62.25;100265.67;1732854;80;21426;-80
2022/05/28 02:39:05;;;;;;;5.15;0.82;;;;;;;9.00;62.54;100260.51;1746907;81;20458;-80
2022/05/28 02:41:31;;;;;;;3.70;1.05;;;;;;;9.03;62.33;100264.77;1792150;78;21312;-79
2022/05/28 02:44:00;;;;;;;2.77;0.90;;;;;;;9.04;62.39;100260.87;1777396;79;20943;-79
2022/05/28 02:46:26;;;;;;;3.93;1.00;;;;;;;9.05;62.37;100252.70;1793300;79;21493;-80
2022/05/28 02:48:52;;;;;;;5.50;1.30;;;;;;;9.07;62.41;100259.98;1760120;80;21910;-79
2022/05/28 02:51:22;;;;;;;5.53;1.90;;;;;;;9.08;62.42;100259.95;1780804;79;21596;-79
2022/05/28 02:53:51;;;;;;;6.08;0.80;;;;;;;8.99;62.49;100238.17;1795900;79;21847;-79
2022/05/28 02:56:18;;;;;;;4.37;1.00;;;;;;;9.09;62.51;100260.37;1796066;78;20891;-80
2022/05/28 02:58:44;;;;;;;;;;;;;;;9.10;62.64;100255.62;1766676;79;21414;-79
2022/05/28 03:01:34;;;;;;;4.70;1.17;;;;;;;9.13;63.00;100254.29;1747092;82;20219;-79
2022/05/28 03:04:05;;;;;;;5.15;0.88;;;;;;;9.13;62.67;100250.86;1783710;78;20949;-79
2022/05/28 03:06:31;;;;;;;4.90;1.10;;;;;;;9.17;62.66;100248.20;1805888;79;20953;-79
2022/05/28 03:08:57;;;;;;;2.83;0.90;;;;;;;9.18;62.72;100247.77;1804095;79;21015;-80
2022/05/28 03:11:24;;;;;;;4.03;0.90;;;;;;;9.20;62.82;100249.45;1755354;80;21064;-79
2022/05/28 03:13:51;;;;;;;5.65;1.32;;;;;;;9.16;62.85;100228.44;1796708;79;21001;-80
2022/05/28 03:16:17;;;;;;;5.70;1.27;;;;;;;9.16;62.85;100228.44;1791089;78;21486;-80
2022/05/28 03:18:43;;;;;;;5.83;1.17;;;;;;;9.30;62.89;100255.31;1801549;79;20930;-80
2022/05/28 03:21:11;;;;;;;4.28;1.07;;;;;;;9.31;62.86;100244.55;1754047;79;113932;-80
2022/05/28 03:23:37;;;;;;;6.10;1.22;;;;;;;9.33;62.88;100252.67;1686299;84;20964;-80
2022/05/28 03:26:13;;;;;;;3.37;0.90;;;;;;;9.34;62.97;100250.52;1694863;84;21324;-80
2022/05/28 03:28:45;;;;;;;3.22;1.10;;;;;;;9.33;63.02;100251.39;1686683;84;21023;-79
2022/05/28 03:31:12;;;;;;;4.37;1.05;;;;;;;9.36;63.08;100247.44;1684592;84;21052;-80
2022/05/28 03:33:39;;;;;;;7.03;1.12;;;;;;;9.37;63.13;100246.55;1667191;84;21054;-80
2022/05/28 03:36:06;;;;;;;3.75;0.72;;;;;;;9.37;63.15;100257.31;1688911;84;25918;-81
2022/05/28 03:38:34;;;;;;;4.22;1.02;;;;;;;9.38;63.17;100256.44;1682512;84;21090;-80
2022/05/28 03:41:00;;;;;;;5.90;1.22;;;;;;;9.39;63.17;100257.70;1687921;84;21094;-80
2022/05/28 03:43:26;;;;;;;5.63;1.13;;;;;;;9.40;63.22;100251.66;1676034;83;20995;-80
2022/05/28 03:45:53;;;;;;;8.78;1.15;;;;;;;9.45;63.28;100250.30;1673594;83;21898;-81
2022/05/28 03:48:20;;;;;;;3.50;1.02;;;;;;;9.47;63.33;100255.00;1694677;84;21102;-80
2022/05/28 03:50:47;;;;;;;5.30;0.90;;;;;;;9.47;63.31;100254.55;1683603;84;20991;-80
2022/05/28 03:53:15;;;;;;;4.62;1.10;;;;;;;9.50;63.36;100256.23;1667046;84;21106;-81
2022/05/28 03:55:45;;;;;;;4.03;0.93;;;;;;;9.52;63.36;100255.33;1674384;84;21047;-80
2022/05/28 03:58:12;;;;;;;3.90;0.93;;;;;;;9.54;63.48;100250.99;1666761;84;21555;-80
2022/05/28 04:00:38;;;;;;;;;;;;;;;9.53;63.39;100245.42;1688930;84;21114;-80
2022/05/28 04:03:04;;;;;;;3.95;1.00;;;;;;;9.51;63.70;100245.88;1689282;83;20164;-80
2022/05/28 04:05:31;;;;;;;8.00;1.30;;;;;;;9.50;63.53;100240.31;1675675;84;20917;-81
2022/05/28 04:07:57;;;;;;;6.28;1.20;;;;;;;9.54;63.56;100241.11;1666603;85;21054;-81
2022/05/28 04:10:24;;;;;;;9.93;1.33;;;;;;;9.60;63.60;100235.84;1676017;84;20998;-81
2022/05/28 04:12:50;;;;;;;5.47;1.12;;;;;;;9.64;63.57;100246.52;1666518;84;20979;-81
2022/05/28 04:15:16;;;;;;;4.63;0.90;;;;;;;9.69;63.62;100247.28;1666150;84;20966;-81
2022/05/28 04:17:42;;;;;;;6.03;1.05;;;;;;;9.73;63.65;100249.38;1691773;83;20905;-81
2022/05/28 04:20:11;;;;;;;7.47;0.90;;;;;;;9.73;63.62;100251.52;1669446;84;21027;-81
2022/05/28 04:22:37;;;;;;;4.55;1.10;;;;;;;9.75;63.70;100240.72;1685272;84;20972;-81
2022/05/28 04:25:05;;;;;;;6.77;1.83;;;;;;;9.77;63.68;100235.09;1671604;84;20884;-81
2022/05/28 04:27:31;;;;;;;3.65;0.78;;;;;;;9.81;63.73;100237.17;1663153;86;20972;-81
2022/05/28 04:30:00;;;;;;;;;;;;;;;9.84;63.74;100239.70;1665598;85;20928;-81
2022/05/28 04:32:26;;;;;;;4.03;1.32;;;;;;;9.92;63.89;100230.05;1674101;84;20119;-81
2022/05/28 04:34:52;;;;;;;7.37;1.20;;;;;;;9.95;63.77;100232.56;1687589;84;20912;-80
2022/05/28 04:37:18;;;;;;;5.07;1.20;;;;;;;9.96;63.77;100233.83;1691176;84;20990;-80
2022/05/28 04:39:45;;;;;;;7.57;1.60;;;;;;;9.96;63.71;100235.12;1691351;84;20880;-80
2022/05/28 04:42:11;;;;;;;9.58;1.92;;;;;;;9.91;63.72;100236.94;1681988;84;21334;-80
2022/05/28 04:44:37;;;;;;;5.37;1.40;;;;;;;9.84;63.78;100232.80;1689648;84;21078;-80
2022/05/28 04:47:07;;;;;;;6.05;1.30;;;;;;;9.83;63.85;100231.55;1698129;83;21098;-80
2022/05/28 04:49:33;;;;;;;3.45;0.90;;;;;;;9.80;63.80;100229.88;1669189;84;21039;-80
2022/05/28 04:51:59;;;;;;;5.33;1.10;;;;;;;9.68;63.81;100193.95;1660779;84;21118;-80
2022/05/28 04:54:25;;;;;;;7.53;1.20;;;;;;;9.68;63.81;100193.95;1666828;84;21854;-81
2022/05/28 04:56:51;;;;;;;5.67;1.40;;;;;;;9.91;64.01;100214.98;1662178;86;20968;-81
2022/05/28 04:59:18;;;;;;;4.20;1.37;;;;;;;10.09;64.07;100210.34;1687476;84;21126;-80
2022/05/28 05:01:44;;;;;;;6.58;1.42;;;;;;;10.38;64.15;100210.62;1673104;84;21725;-81
2022/05/28 05:04:11;;;;;;;9.58;1.47;;;;;;;10.73;64.24;100204.63;1661756;84;21011;-81
2022/05/28 05:06:37;;;;;;;4.12;1.10;;;;;;;11.08;64.27;100214.56;1684584;84;21147;-81
2022/05/28 05:09:04;;;;;;;9.33;1.50;;;;;;;11.14;64.16;100193.70;1677383;84;21373;-81
2022/05/28 05:11:30;;;;;;;5.72;1.20;;;;;;;11.10;63.92;100206.31;1686583;84;21075;-81
2022/05/28 05:13:56;;;;;;;9.37;1.37;;;;;;;11.06;63.97;100202.95;1674868;84;20907;-80
2022/05/28 05:16:22;;;;;;;6.60;1.32;;;;;;;11.08;64.00;100202.91;1686715;83;21142;-80
2022/05/28 05:18:52;;;;;;;10.15;1.50;;;;;;;11.17;64.02;100203.54;1718243;83;21325;-81
2022/05/28 05:21:17;;;;;;;8.47;1.63;;;;;;;11.19;63.93;100212.11;1678572;83;20947;-81
2022/05/28 05:23:44;;;;;;;3.97;1.17;;;;;;;11.16;63.90;100198.40;1662092;84;21288;-81
2022/05/28 05:26:17;;;;;;;6.65;1.20;;;;;;;11.11;63.89;100198.96;1661503;84;21119;-81
2022/05/28 05:28:43;;;;;;;6.50;1.45;;;;;;;10.96;63.74;100204.06;1679391;84;21401;-81
2022/05/28 05:31:09;;;;;;;6.95;1.60;;;;;;;10.84;63.81;100212.14;1666934;84;20983;-82
2022/05/28 05:33:38;;;;;;;5.17;2.00;;;;;;;10.74;63.80;100206.33;1691134;84;20952;-81
2022/05/28 05:36:05;;;;;;;4.12;1.75;;;;;;;10.71;63.85;100213.31;1690714;84;20968;-81
2022/05/28 05:38:31;;;;;;;;;;;;;;;10.67;63.87;100206.06;1676032;84;20904;-81
2022/05/28 05:40:57;;;;;;;8.13;2.00;;;;;;;10.68;63.82;100196.57;1675368;84;20205;-81
2022/05/28 05:43:23;;;;;;;6.83;2.50;;;;;;;10.70;63.78;100203.85;1691360;84;21490;-81
2022/05/28 05:45:55;;;;;;;6.23;1.40;;;;;;;10.76;63.83;100196.80;1671498;83;20881;-81
2022/05/28 05:48:22;;;;;;;8.70;1.50;;;;;;;10.88;63.86;100197.81;1674423;83;20932;-81
2022/05/28 05:50:49;;;;;;;5.95;1.05;;;;;;;11.01;63.77;100204.80;1680674;84;20967;-81
2022/05/28 05:53:16;;;;;;;7.83;1.45;;;;;;;11.10;63.79;100210.20;1691081;84;20901;-81
2022/05/28 05:55:43;;;;;;;;;;;;;;;11.16;63.72;100200.55;1686434;84;20932;-81
2022/05/28 05:58:09;;;;;;;5.87;1.57;;;;;;;11.23;63.69;100209.86;1675636;84;20109;-80
2022/05/28 06:00:36;;;;;;;5.35;1.50;;;;;;;11.37;63.66;100206.92;1682061;83;20889;-81
2022/05/28 06:03:03;;;;;;;7.10;1.42;;;;;;;11.54;63.69;100202.57;1677294;84;21091;-81
2022/05/28 06:05:31;;;;;;;4.53;1.30;;;;;;;11.70;63.70;100197.83;1687728;84;20956;-81
2022/05/28 06:07:57;;;;;;;4.35;1.22;;;;;;;11.82;63.65;100197.09;1691115;84;20923;-81
2022/05/28 06:10:24;;;;;;;3.77;1.22;;;;;;;11.95;63.63;100204.07;1691219;84;20952;-81
2022/05/28 06:12:50;;;;;;;4.42;1.30;;;;;;;12.00;63.56;100201.32;1690182;83;21121;-81
2022/05/28 06:15:16;;;;;;;6.13;1.10;;;;;;;12.01;63.49;100197.84;1691070;84;21602;-81
2022/05/28 06:17:42;;;;;;;6.93;1.10;;;;;;;11.93;63.41;100201.52;1719426;83;21790;-81
2022/05/28 06:20:12;;;;;;;5.75;1.60;;;;;;;11.87;63.32;100196.95;1694198;83;20960;-81
2022/05/28 06:22:39;;;;;;;5.25;0.88;;;;;;;11.80;63.33;100198.87;1670481;84;20927;-81
2022/05/28 06:25:06;;;;;;;4.43;1.47;;;;;;;11.76;63.25;100193.33;1668977;84;21002;-81
2022/05/28 06:27:33;;;;;;;4.28;1.20;;;;;;;11.73;63.29;100196.45;1691121;84;20972;-81
2022/05/28 06:30:00;;;;;;;4.25;1.22;;;;;;;11.70;63.22;100184.44;1691088;84;20956;-81
2022/05/28 06:32:26;;;;;;;8.23;1.33;;;;;;;11.75;63.27;100190.34;1680669;84;21019;-80
2022/05/28 06:34:55;;;;;;;10.03;2.12;;;;;;;11.86;63.28;100184.45;1671167;84;20881;-80
2022/05/28 06:37:21;;;;;;;7.47;1.45;;;;;;;12.02;63.26;100185.28;1690999;84;20888;-81
2022/05/28 06:39:47;;;;;;;4.57;0.93;;;;;;;12.40;63.39;100182.86;1685113;84;21043;-81
2022/05/28 06:42:13;;;;;;;4.33;1.00;;;;;;;12.64;63.25;100179.94;1681179;84;20940;-81
2022/05/28 06:44:39;;;;;;;5.90;1.33;;;;;;;12.89;63.14;100184.75;1663235;86;20952;-81
2022/05/28 06:47:05;;;;;;;8.20;1.40;;;;;;;13.10;62.98;100180.13;1700276;83;20924;-81
2022/05/28 06:49:32;;;;;;;3.17;1.03;;;;;;;13.11;62.80;100175.33;1678644;84;21457;-81
2022/05/28 06:51:58;;;;;;;2.67;1.05;;;;;;;13.16;62.87;100187.74;1680784;84;25506;-81
2022/05/28 06:54:24;;;;;;;6.20;1.20;;;;;;;13.16;62.77;100179.95;1663607;84;20948;-80
2022/05/28 06:56:50;;;;;;;6.05;1.75;;;;;;;13.13;62.63;100183.92;1684108;84;21193;-80
2022/05/28 06:59:16;;;;;;;7.87;2.13;;;;;;;13.00;62.39;100179.21;1675923;84;21521;-80
2022/05/28 07:01:42;;;;;;;4.63;1.47;;;;;;;12.76;62.20;100176.51;1611435;82;5001465;-81
2022/05/28 07:04:08;;;;;;;3.50;1.00;;;;;;;12.56;62.21;100179.72;1688789;84;20943;-81
2022/05/28 07:06:36;;;;;;;4.92;0.90;;;;;;;12.40;62.21;100176.37;1686771;83;21062;-81
2022/05/28 07:09:07;;;;;;;5.70;1.53;;;;;;;12.17;62.35;100180.50;1696673;84;20928;-81
2022/05/28 07:11:33;;;;;;;4.85;1.00;;;;;;;12.05;62.44;100177.42;1696406;84;21417;-80
2022/05/28 07:13:59;;;;;;;;;;;;;;;11.91;62.53;100180.44;1689976;83;20948;-81
2022/05/28 07:16:26;;;;;;;6.23;1.53;;;;;;;11.65;62.35;100190.63;1683977;84;20158;-81
2022/05/28 07:18:52;;;;;;;5.83;1.72;;;;;;;11.65;62.35;100190.63;1708078;84;20947;-81
2022/05/28 07:21:18;;;;;;;5.17;1.30;;;;;;;11.53;62.50;100186.63;1696384;83;20965;-81
2022/05/28 07:23:44;;;;;;;6.70;1.40;;;;;;;11.56;62.79;100178.34;1682848;84;20916;-80
2022/05/28 07:26:16;;;;;;;7.13;0.90;;;;;;;11.80;62.90;100183.33;1693075;84;20917;-80
2022/05/28 07:28:44;;;;;;;4.42;1.50;;;;;;;12.15;62.95;100183.59;1679925;84;20901;-81
2022/05/28 07:31:18;;;;;;;8.68;1.17;;;;;;;12.62;62.90;100176.54;1680144;84;20920;-81
2022/05/28 07:33:46;;;;;;;4.45;0.90;;;;;;;12.82;62.55;100187.98;1695672;83;20897;-81
2022/05/28 07:36:19;;;;;;;4.70;0.90;;;;;;;13.13;62.74;100182.63;1707293;84;20941;-81
2022/05/28 07:38:46;;;;;;;4.45;1.65;;;;;;;13.51;62.69;100168.81;1707933;84;21058;-81
2022/05/28 07:41:17;;;;;;;3.62;0.93;;;;;;;13.74;62.53;100162.32;1704319;83;21106;-82
2022/05/28 07:43:44;;;;;;;1.40;0.50;;;;;;;13.96;62.37;100149.39;1686228;84;21454;-81
2022/05/28 07:46:23;;;;;;;3.90;0.70;;;;;;;14.07;62.35;100151.11;1698637;82;20928;-81
2022/05/28 07:48:49;;;;;;;6.78;1.10;;;;;;;14.06;62.05;100155.91;1705300;82;21274;-81
2022/05/28 07:51:16;;;;;;;3.80;0.90;;;;;;;13.83;62.01;100149.00;1703510;82;24720;-82
2022/05/28 07:53:43;;;;;;;;;;;;;;;13.61;62.00;100150.67;1716550;82;21052;-83
2022/05/28 07:56:10;;;;;;;7.55;0.90;;;;;;;13.39;61.57;100152.36;1707740;81;20152;-82
2022/05/28 07:58:36;;;;;;;;;;;;;;;13.20;61.94;100141.30;1692824;83;21059;-82
2022/05/28 08:01:04;;;;;;;4.58;0.95;;;;;;;13.13;61.73;100153.22;1683276;83;20151;-82
2022/05/28 08:03:31;;;;;;;3.75;1.20;;;;;;;13.01;61.79;100156.22;1696137;84;21083;-82
2022/05/28 08:05:57;;;;;;;2.55;0.60;;;;;;;12.90;61.73;100153.56;1680753;83;21114;-82
2022/05/28 08:08:26;;;;;;;1.62;0.98;;;;;;;12.81;61.72;100161.64;1704698;83;21103;-83
2022/05/28 08:10:53;;;;;;;3.05;0.72;;;;;;;12.70;61.55;100168.07;1706032;84;21454;-83
2022/05/28 08:13:24;;;;;;;3.87;1.22;;;;;;;12.55;61.60;100162.91;1684022;84;20980;-81
2022/05/28 08:15:52;;;;;;;2.35;0.68;;;;;;;12.53;61.68;100166.00;1692375;83;21684;-81
2022/05/28 08:18:23;;;;;;;1.50;0.50;;;;;;;12.49;61.76;100175.63;1699964;84;21039;-81
2022/05/28 08:23:41;;;;;;;2.72;0.55;;;;;;;12.54;61.81;100169.84;1684065;84;21079;-82
2022/05/28 08:26:19;;;;;;;0.90;0.50;;;;;;;12.68;61.82;100172.01;1704227;83;21122;-82
2022/05/28 08:28:43;;;;;;;3.37;0.80;;;;;;;12.89;61.84;100166.14;1699404;82;21131;-82
2022/05/28 08:31:09;;;;;;;1.47;1.00;;;;;;;13.09;61.79;100160.70;1693546;83;20952;-83
2022/05/28 08:33:36;;;;;;;2.37;0.78;;;;;;;13.17;61.59;100163.48;1687972;84;21059;-82
2022/05/28 08:36:03;;;;;;;2.85;0.88;;;;;;;13.18;61.50;100159.98;1698734;84;21111;-82
2022/05/28 08:38:29;;;;;;;4.75;0.82;;;;;;;13.17;61.39;100171.27;1706342;83;21117;-82
2022/05/28 08:41:21;;;;;;;3.33;0.93;;;;;;;13.10;61.38;100172.79;1696181;84;20916;-83
2022/05/28 08:44:14;;;;;;;3.05;0.85;;;;;;;13.00;61.25;100170.95;1701562;83;21031;-83
2022/05/28 08:46:43;;;;;;;1.87;0.72;;;;;;;12.93;61.27;100169.48;1701457;83;21627;-83
2022/05/28 08:49:12;;;;;;;4.20;1.20;;;;;;;12.95;61.18;100170.28;1696553;84;21109;-82
2022/05/28 08:51:55;;;;;;;1.90;0.82;;;;;;;12.98;61.15;100168.88;1700635;84;20921;-80
2022/05/28 08:54:35;;;;;;;3.98;0.82;;;;;;;13.02;61.07;100170.89;1700043;84;20920;-81
2022/05/28 08:57:13;;;;;;;4.80;1.17;;;;;;;13.14;61.10;100173.09;1705813;84;20885;-81
2022/05/28 08:59:56;;;;;;;3.75;0.85;;;;;;;13.19;60.85;100175.95;1687479;84;20920;-81
2022/05/28 09:02:43;;;;;;;4.15;1.90;;;;;;;13.23;60.77;100172.81;1679255;84;21511;-81
2022/05/28 09:05:26;;;;;;;4.83;2.55;;;;;;;13.25;60.77;100167.96;1694785;83;20912;-81
2022/05/28 09:08:04;;;;;;;5.37;1.10;;;;;;;13.27;60.50;100173.10;1680031;84;20948;-81
2022/05/28 09:10:46;;;;;;;3.80;1.02;;;;;;;13.09;60.17;100169.80;1705622;84;20901;-81
2022/05/28 09:13:37;;;;;;;4.42;0.90;;;;;;;12.95;60.24;100179.81;1685836;83;20880;-80
2022/05/28 09:16:04;;;;;;;3.50;0.80;;;;;;;12.77;60.23;100180.80;1699852;82;21350;-80
2022/05/28 09:18:39;;;;;;;6.72;0.95;;;;;;;12.67;60.03;100185.87;1674374;84;21378;-80
2022/05/28 09:21:07;;;;;;;3.55;0.90;;;;;;;12.53;59.88;100189.34;1680647;83;20922;-80
2022/05/28 09:23:50;;;;;;;2.55;0.72;;;;;;;12.39;60.09;100191.09;1696054;83;21097;-80
2022/05/28 09:26:30;;;;;;;2.40;0.72;;;;;;;12.32;60.05;100201.23;1676843;84;21015;-80
2022/05/28 09:29:19;;;;;;;3.05;0.90;;;;;;;12.21;59.93;100188.59;1702417;84;20988;-80
2022/05/28 09:31:54;;;;;;;2.45;0.90;;;;;;;12.13;60.05;100198.34;1702683;84;21319;-80
2022/05/28 09:34:34;;;;;;;3.12;1.02;;;;;;;12.13;60.08;100203.97;1702796;82;21036;-81
2022/05/28 09:37:31;;;;;;;2.80;0.80;;;;;;;12.15;60.15;100198.29;1704888;82;21056;-80
2022/05/28 09:40:05;;;;;;;6.62;1.12;;;;;;;12.26;60.23;100193.20;1678165;84;21040;-81
2022/05/28 09:42:55;;;;;;;6.95;1.20;;;;;;;12.55;60.44;100190.14;1696188;83;21019;-80
2022/05/28 09:45:56;;;;;;;4.92;1.00;;;;;;;12.85;60.37;100200.86;1691901;84;21059;-81
2022/05/28 09:48:26;;;;;;;4.17;0.90;;;;;;;13.05;60.04;100192.86;1687280;84;21582;-81
2022/05/28 09:50:55;;;;;;;2.70;0.70;;;;;;;13.05;59.91;100187.22;1702868;83;21519;-81
2022/05/28 09:56:39;;;;;;;3.02;0.65;;;;;;;13.27;59.94;100184.79;1704063;82;21662;-79
2022/05/28 09:59:21;;;;;;;2.00;0.80;;;;;;;13.35;59.09;100174.14;1704023;84;21554;-81
2022/05/28 10:02:10;;;;;;;3.50;1.30;;;;;;;13.35;59.64;100193.62;1699513;83;21561;-81
2022/05/28 10:05:06;;;;;;;6.25;0.90;;;;;;;13.38;59.64;100190.47;1700176;83;21150;-81
2022/05/28 10:07:41;;;;;;;1.90;0.47;;;;;;;13.33;59.23;100195.42;1663817;83;21627;-81
2022/05/28 10:10:22;;;;;;;3.45;1.00;;;;;;;13.26;59.23;100194.78;1701129;84;20992;-80
2022/05/28 10:13:06;;;;;;;4.42;1.45;;;;;;;13.29;59.31;100193.83;1701954;84;21082;-80
2022/05/28 10:15:38;;;;;;;5.45;1.02;;;;;;;13.29;59.03;100180.84;1684949;83;20975;-80
2022/05/28 10:18:15;;;;;;;3.80;0.93;;;;;;;13.30;59.10;100176.05;1703656;83;20980;-80
2022/05/28 10:20:42;;;;;;;3.22;0.90;;;;;;;13.34;58.97;100174.59;1701942;82;21738;-80
2022/05/28 10:23:15;;;;;;;4.42;1.20;;;;;;;13.57;59.25;100172.02;1713353;83;21491;-80
2022/05/28 10:25:48;;;;;;;7.05;1.22;;;;;;;13.88;59.10;100165.27;1715231;82;21425;-80
2022/05/28 10:28:29;;;;;;;2.22;0.95;;;;;;;14.13;58.80;100177.33;1702845;83;21498;-80
2022/05/28 10:30:58;;;;;;;3.45;0.90;;;;;;;14.36;58.64;100172.11;1695961;83;21622;-81
2022/05/28 10:33:28;;;;;;;;;;;;;;;14.58;58.58;100153.45;1712865;82;21034;-81
2022/05/28 10:36:07;;;;;;;3.42;1.00;;;;;;;14.76;58.46;100156.23;1710088;83;20578;-81
2022/05/28 10:38:34;;;;;;;2.87;0.80;;;;;;;14.97;58.47;100157.97;1717002;83;21452;-81
2022/05/28 10:41:07;;;;;;;3.97;0.87;;;;;;;15.02;58.53;100158.63;1704591;83;21480;-81
2022/05/28 10:43:37;;;;;;;3.35;1.05;;;;;;;14.95;58.18;100161.09;1707757;83;21048;-81
2022/05/28 10:46:18;;;;;;;2.27;0.90;;;;;;;14.73;58.06;100158.96;1705204;83;21440;-81
2022/05/28 10:49:11;;;;;;;2.87;0.90;;;;;;;14.55;57.98;100164.02;1692237;83;21079;-80
2022/05/28 10:52:06;;;;;;;5.50;1.25;;;;;;;14.43;58.10;100170.16;1694333;83;21149;-80
2022/05/28 10:55:08;;;;;;;5.47;1.07;;;;;;;14.30;57.80;100181.90;1708759;83;21456;-80
2022/05/28 10:58:11;;;;;;;2.65;0.70;;;;;;;14.09;57.41;100175.75;1704519;83;21437;-81
2022/05/28 11:01:00;;;;;;;2.47;0.90;;;;;;;13.92;57.47;100188.09;1707111;82;21586;-81
2022/05/28 11:03:38;;;;;;;3.67;0.80;;;;;;;13.83;57.54;100177.59;1685411;83;21485;-81
2022/05/28 11:06:34;;;;;;;3.90;0.90;;;;;;;13.77;57.40;100186.90;1693403;83;21575;-81
2022/05/28 11:09:16;;;;;;;2.37;0.98;;;;;;;13.87;57.47;100192.16;1707898;82;21508;-80
2022/05/28 11:12:05;;;;;;;4.00;0.90;;;;;;;14.16;57.60;100193.67;1703142;83;20916;-81
2022/05/28 11:14:56;;;;;;;3.27;1.02;;;;;;;14.41;57.52;100194.05;1712332;83;20985;-80
2022/05/28 11:17:49;;;;;;;1.98;0.75;;;;;;;14.68;57.32;100194.73;1677745;83;20901;-81
2022/05/28 11:21:07;;;;;;;5.60;2.13;;;;;;;14.74;57.09;100187.98;1688317;84;21413;-81
2022/05/28 11:23:53;;;;;;;3.08;0.57;;;;;;;14.78;56.91;100190.41;1688410;83;20992;-81
2022/05/28 11:26:49;;;;;;;1.98;0.80;;;;;;;14.74;57.03;100199.23;1690208;83;21079;-81
2022/05/28 11:29:40;;;;;;;5.00;0.80;;;;;;;14.68;57.06;100199.94;1693007;83;20928;-82
2022/05/28 11:32:35;;;;;;;3.25;0.90;;;;;;;14.55;56.68;100216.05;1691551;83;21375;-80
2022/05/28 11:35:21;;;;;;;1.65;0.82;;;;;;;14.33;56.64;100200.84;1694056;81;21127;-80
2022/05/28 11:38:14;;;;;;;2.47;0.60;;;;;;;14.16;56.79;100209.72;1692711;83;21623;-81
2022/05/28 11:40:57;;;;;;;3.12;1.00;;;;;;;13.94;56.79;100241.33;1693630;83;21135;-81
2022/05/28 11:43:28;;;;;;;2.98;0.65;;;;;;;13.75;56.83;100241.98;1691100;83;21100;-82
2022/05/28 11:46:20;;;;;;;0.98;0.55;;;;;;;13.52;56.77;100256.20;1694723;82;21107;-82
2022/05/28 11:52:28;;;;;;;2.62;0.70;;;;;;;13.17;57.15;100249.60;1704432;83;21047;-82
2022/05/28 11:55:17;;;;;;;2.00;0.78;;;;;;;12.91;57.11;100260.36;1687388;83;21039;-82
2022/05/28 11:58:15;;;;;;;3.40;1.27;;;;;;;12.72;57.31;100264.41;1693784;83;21578;-82
2022/05/28 12:00:56;;;;;;;4.03;0.95;;;;;;;12.66;57.35;100274.97;1699131;83;21036;-81
2022/05/28 12:03:26;;;;;;;2.47;1.00;;;;;;;12.55;57.53;100273.98;1697767;83;21628;-81
2022/05/28 12:06:22;;;;;;;2.60;1.05;;;;;;;12.49;57.80;100277.20;1698802;83;21055;-81